Terminal Aerodrome Forecast
Issued by NWS

Home | Current Version | Previous Version | Text Only | Print | Product List | Glossary Off
Versions: 1 2 3 4 5 6 7 8 9 10 11 12 13 14 15 16 17 18 19 20 21 22 23 24 25 26

000
FTUS43 KLOT 132059 AAA
TAFORD
TAF AMD
KORD 132059Z 1321/1424 31018G29KT P6SM OVC018
      TEMPO 1322/1324 31022G32KT
     FM140200 35016G27KT 6SM -SHSN OVC015
      TEMPO 1403/1407 02012G18KT 1 1/2SM -SN BKN015
     FM140900 33011KT P6SM FEW025 SCT250
     FM142200 23008KT P6SM BKN060=

USA.gov is the U.S. government's official web portal to all federal, state and local government web resources and services.